Aérodrome :
LOGIN :

S'inscrire | Disclaimer

   EN    FR    IT 

 










Légende :    VFR   VFR Marginal   IFR   IFR Intensif   IFR Très Intensif
Visi : 
Plafond : 
>= 8 km
>= 3000ft
5 à 8 km
1000 à 3000 ft
1500m à 5 km
500 à 1000 ft
800 à 1500m
200 à 500 ft
< 800m
< 200 ft
Symboles :   Orages  Brouillard  Fortes neiges  Fortes précipitations  Vent > 20 kt
SIGMETs :   Divers  Orages  Givrage  Turbulence  Onde Orograph.  Cendres Volcan.






- Altitude de l'aérodrome : 46 ft
- Code IATA : SNN


EINN - Shannon

DERNIER METAR :
  • 200500Z 12005KT CAVOK 01/00 Q1046 NOSIG

METARs EXPIRÉS :
  • 200430Z 12005KT CAVOK 01/M00 Q1046 NOSIG
  • 200400Z 12004KT CAVOK 01/00 Q1046 NOSIG
  • 200330Z 11003KT CAVOK 01/00 Q1046 NOSIG
  • 200300Z 13004KT CAVOK 02/01 Q1046 NOSIG
  • 200230Z 12004KT CAVOK 02/01 Q1047 NOSIG

TAF TAF EINN
Valide du 20 à 00h jusqu'au 21 à 00h UTC


192300Z 2000/2024 12007KT 9999 FEW030
TEMPO 2000/2012 3000 BR SCT002
PROB40
TEMPO 2002/2010 0200 FG FZFG BKN001
TEMPO 2018/2024 3000 BR SCT002
PROB40
TEMPO 2021/2024 0800 FG BKN002



MET'MAP, la Météo Aéronautique d'un coup d'oeil ! - Copyright ORBIFLY Décembre 2007 - Disclaimer

ORBIFLY MET'MAP TEAM :

Programmation & Développement : Alexandra Zaïnal
Sur une idée originale de : Baudouin d'Aumeries
Assistance à la programmation : Marc-Olivier Méhu
Soutien technique & logistique : Manuel Goepfert

Contact : metmap@orbifly.com




SOURCES & CREDITS :

   NOAA